sensor_id;sensor_type;location;lat;lon;timestamp;temperature;humidity
50758;DHT22;36732;47.980;11.652;2023-05-08T00:01:10;17.50;61.90
50758;DHT22;36732;47.980;11.652;2023-05-08T00:03:36;17.50;62.00
50758;DHT22;36732;47.980;11.652;2023-05-08T00:06:05;17.40;62.00
50758;DHT22;36732;47.980;11.652;2023-05-08T00:08:31;17.40;62.20
50758;DHT22;36732;47.980;11.652;2023-05-08T00:10:57;17.40;62.10
50758;DHT22;36732;47.980;11.652;2023-05-08T00:13:23;17.40;62.10
50758;DHT22;36732;47.980;11.652;2023-05-08T00:15:49;17.40;62.10
50758;DHT22;36732;47.980;11.652;2023-05-08T00:18:14;17.40;62.20
50758;DHT22;36732;47.980;11.652;2023-05-08T00:20:41;17.40;62.10
50758;DHT22;36732;47.980;11.652;2023-05-08T00:23:07;17.40;62.10
50758;DHT22;36732;47.980;11.652;2023-05-08T00:25:32;17.30;62.10
50758;DHT22;36732;47.980;11.652;2023-05-08T00:27:59;17.30;62.20
50758;DHT22;36732;47.980;11.652;2023-05-08T00:30:25;17.40;62.20
50758;DHT22;36732;47.980;11.652;2023-05-08T00:32:51;17.30;62.30
50758;DHT22;36732;47.980;11.652;2023-05-08T00:35:17;17.30;62.30
50758;DHT22;36732;47.980;11.652;2023-05-08T00:37:43;17.30;62.50
50758;DHT22;36732;47.980;11.652;2023-05-08T00:40:10;17.30;62.50
50758;DHT22;36732;47.980;11.652;2023-05-08T00:42:36;17.30;62.70
50758;DHT22;36732;47.980;11.652;2023-05-08T00:45:03;17.30;62.80
50758;DHT22;36732;47.980;11.652;2023-05-08T00:47:30;17.30;63.00
50758;DHT22;36732;47.980;11.652;2023-05-08T00:49:58;17.30;63.10
50758;DHT22;36732;47.980;11.652;2023-05-08T00:52:25;17.30;63.20
50758;DHT22;36732;47.980;11.652;2023-05-08T00:54:52;17.20;63.10
50758;DHT22;36732;47.980;11.652;2023-05-08T00:57:20;17.20;63.20
50758;DHT22;36732;47.980;11.652;2023-05-08T00:59:47;17.20;63.20
50758;DHT22;36732;47.980;11.652;2023-05-08T01:02:14;17.30;63.40
50758;DHT22;36732;47.980;11.652;2023-05-08T01:04:41;17.20;63.40
50758;DHT22;36732;47.980;11.652;2023-05-08T01:07:10;17.20;63.60
50758;DHT22;36732;47.980;11.652;2023-05-08T01:09:36;17.20;63.60
50758;DHT22;36732;47.980;11.652;2023-05-08T01:15:43;17.20;64.00
50758;DHT22;36732;47.980;11.652;2023-05-08T01:18:18;17.30;63.80
50758;DHT22;36732;47.980;11.652;2023-05-08T01:24:29;17.20;64.20
50758;DHT22;36732;47.980;11.652;2023-05-08T01:36:29;17.20;64.40
50758;DHT22;36732;47.980;11.652;2023-05-08T01:42:07;17.20;64.50
50758;DHT22;36732;47.980;11.652;2023-05-08T01:44:47;17.20;65.10
50758;DHT22;36732;47.980;11.652;2023-05-08T01:47:18;17.20;64.90
50758;DHT22;36732;47.980;11.652;2023-05-08T01:49:50;17.20;65.00
50758;DHT22;36732;47.980;11.652;2023-05-08T01:52:31;17.20;65.40
50758;DHT22;36732;47.980;11.652;2023-05-08T01:55:07;17.20;65.80
50758;DHT22;36732;47.980;11.652;2023-05-08T01:57:37;17.20;65.70
50758;DHT22;36732;47.980;11.652;2023-05-08T02:00:07;17.20;65.80
50758;DHT22;36732;47.980;11.652;2023-05-08T02:02:34;17.30;65.80
50758;DHT22;36732;47.980;11.652;2023-05-08T02:05:03;17.30;65.80
50758;DHT22;36732;47.980;11.652;2023-05-08T02:07:30;17.30;66.10
50758;DHT22;36732;47.980;11.652;2023-05-08T02:09:58;17.30;66.10
50758;DHT22;36732;47.980;11.652;2023-05-08T02:12:26;17.30;66.10
50758;DHT22;36732;47.980;11.652;2023-05-08T02:14:52;17.30;66.30
50758;DHT22;36732;47.980;11.652;2023-05-08T02:17:20;17.30;66.40
50758;DHT22;36732;47.980;11.652;2023-05-08T02:19:47;17.30;66.40
50758;DHT22;36732;47.980;11.652;2023-05-08T02:22:15;17.30;66.40
50758;DHT22;36732;47.980;11.652;2023-05-08T02:24:43;17.30;66.50
50758;DHT22;36732;47.980;11.652;2023-05-08T02:27:10;17.30;66.50
50758;DHT22;36732;47.980;11.652;2023-05-08T02:29:37;17.30;66.50
50758;DHT22;36732;47.980;11.652;2023-05-08T02:32:03;17.30;66.40
50758;DHT22;36732;47.980;11.652;2023-05-08T02:34:30;17.30;66.50
50758;DHT22;36732;47.980;11.652;2023-05-08T02:36:58;17.30;66.50
50758;DHT22;36732;47.980;11.652;2023-05-08T02:39:29;17.30;66.50
50758;DHT22;36732;47.980;11.652;2023-05-08T02:41:55;17.30;66.90
50758;DHT22;36732;47.980;11.652;2023-05-08T02:44:21;17.40;66.70
50758;DHT22;36732;47.980;11.652;2023-05-08T02:46:52;17.40;66.70
50758;DHT22;36732;47.980;11.652;2023-05-08T02:49:32;17.40;67.00
50758;DHT22;36732;47.980;11.652;2023-05-08T02:55:10;17.40;67.10
50758;DHT22;36732;47.980;11.652;2023-05-08T02:58:21;17.40;67.00
50758;DHT22;36732;47.980;11.652;2023-05-08T03:00:57;17.40;67.10
50758;DHT22;36732;47.980;11.652;2023-05-08T03:03:35;17.40;66.90
50758;DHT22;36732;47.980;11.652;2023-05-08T03:06:05;17.40;66.80
50758;DHT22;36732;47.980;11.652;2023-05-08T03:08:34;17.30;66.50
50758;DHT22;36732;47.980;11.652;2023-05-08T03:11:05;17.30;66.50
50758;DHT22;36732;47.980;11.652;2023-05-08T03:13:34;17.30;66.60
50758;DHT22;36732;47.980;11.652;2023-05-08T03:16:03;17.30;66.50
50758;DHT22;36732;47.980;11.652;2023-05-08T03:18:58;17.30;66.50
50758;DHT22;36732;47.980;11.652;2023-05-08T03:21:27;17.30;67.60
50758;DHT22;36732;47.980;11.652;2023-05-08T03:23:56;17.30;66.50
50758;DHT22;36732;47.980;11.652;2023-05-08T03:26:24;17.30;66.50
50758;DHT22;36732;47.980;11.652;2023-05-08T03:28:51;17.30;66.50
50758;DHT22;36732;47.980;11.652;2023-05-08T03:31:19;17.30;66.60
50758;DHT22;36732;47.980;11.652;2023-05-08T03:33:47;17.30;66.70
50758;DHT22;36732;47.980;11.652;2023-05-08T03:36:14;17.30;66.60
50758;DHT22;36732;47.980;11.652;2023-05-08T03:38:40;17.30;66.60
50758;DHT22;36732;47.980;11.652;2023-05-08T03:41:06;17.30;66.60
50758;DHT22;36732;47.980;11.652;2023-05-08T03:43:33;17.30;66.60
50758;DHT22;36732;47.980;11.652;2023-05-08T03:46:01;17.30;66.50
50758;DHT22;36732;47.980;11.652;2023-05-08T03:48:27;17.30;66.40
50758;DHT22;36732;47.980;11.652;2023-05-08T03:50:56;17.30;66.50
50758;DHT22;36732;47.980;11.652;2023-05-08T03:53:23;17.30;66.40
50758;DHT22;36732;47.980;11.652;2023-05-08T03:55:48;17.20;66.20
50758;DHT22;36732;47.980;11.652;2023-05-08T04:01:11;17.20;66.20
50758;DHT22;36732;47.980;11.652;2023-05-08T04:09:36;17.20;66.00
50758;DHT22;36732;47.980;11.652;2023-05-08T04:12:14;17.20;65.90
50758;DHT22;36732;47.980;11.652;2023-05-08T04:14:52;17.20;65.80
50758;DHT22;36732;47.980;11.652;2023-05-08T04:17:48;17.20;65.60
50758;DHT22;36732;47.980;11.652;2023-05-08T04:20:20;17.10;65.70
50758;DHT22;36732;47.980;11.652;2023-05-08T04:22:49;17.10;65.70
50758;DHT22;36732;47.980;11.652;2023-05-08T04:25:16;17.10;65.60
50758;DHT22;36732;47.980;11.652;2023-05-08T04:27:44;17.10;65.70
50758;DHT22;36732;47.980;11.652;2023-05-08T04:30:10;17.10;65.60
50758;DHT22;36732;47.980;11.652;2023-05-08T04:32:38;17.10;65.50
50758;DHT22;36732;47.980;11.652;2023-05-08T04:35:04;17.10;65.50
50758;DHT22;36732;47.980;11.652;2023-05-08T04:37:31;17.10;65.40
50758;DHT22;36732;47.980;11.652;2023-05-08T04:39:57;17.10;65.40
50758;DHT22;36732;47.980;11.652;2023-05-08T04:42:24;17.10;65.30
50758;DHT22;36732;47.980;11.652;2023-05-08T04:44:53;17.10;65.20
50758;DHT22;36732;47.980;11.652;2023-05-08T04:47:19;17.00;65.20
50758;DHT22;36732;47.980;11.652;2023-05-08T04:49:45;17.00;65.10
50758;DHT22;36732;47.980;11.652;2023-05-08T04:52:11;17.00;65.20
50758;DHT22;36732;47.980;11.652;2023-05-08T04:54:36;17.00;65.20
50758;DHT22;36732;47.980;11.652;2023-05-08T04:57:03;17.00;65.20
50758;DHT22;36732;47.980;11.652;2023-05-08T04:59:29;17.00;65.20
50758;DHT22;36732;47.980;11.652;2023-05-08T05:01:57;17.00;65.10
50758;DHT22;36732;47.980;11.652;2023-05-08T05:04:23;17.00;65.00
50758;DHT22;36732;47.980;11.652;2023-05-08T05:06:49;17.00;65.00
50758;DHT22;36732;47.980;11.652;2023-05-08T05:09:14;17.00;65.00
50758;DHT22;36732;47.980;11.652;2023-05-08T05:11:40;17.00;65.00
50758;DHT22;36732;47.980;11.652;2023-05-08T05:14:06;16.90;65.00
50758;DHT22;36732;47.980;11.652;2023-05-08T05:16:32;16.90;65.00
50758;DHT22;36732;47.980;11.652;2023-05-08T05:18:58;16.90;64.90
50758;DHT22;36732;47.980;11.652;2023-05-08T05:21:24;16.90;64.80
50758;DHT22;36732;47.980;11.652;2023-05-08T05:23:50;16.90;64.80
50758;DHT22;36732;47.980;11.652;2023-05-08T05:26:16;16.90;64.80
50758;DHT22;36732;47.980;11.652;2023-05-08T05:28:42;16.90;64.90
50758;DHT22;36732;47.980;11.652;2023-05-08T05:31:09;16.90;64.90
50758;DHT22;36732;47.980;11.652;2023-05-08T05:33:35;16.90;65.00
50758;DHT22;36732;47.980;11.652;2023-05-08T05:36:00;16.90;65.10
50758;DHT22;36732;47.980;11.652;2023-05-08T05:38:26;16.90;65.10
50758;DHT22;36732;47.980;11.652;2023-05-08T05:40:52;16.90;65.00
50758;DHT22;36732;47.980;11.652;2023-05-08T05:43:18;16.90;65.10
50758;DHT22;36732;47.980;11.652;2023-05-08T05:45:44;16.90;65.10
50758;DHT22;36732;47.980;11.652;2023-05-08T05:48:09;16.90;65.20
50758;DHT22;36732;47.980;11.652;2023-05-08T05:50:35;16.90;65.10
50758;DHT22;36732;47.980;11.652;2023-05-08T05:53:02;16.90;65.20
50758;DHT22;36732;47.980;11.652;2023-05-08T05:55:28;16.90;65.20
50758;DHT22;36732;47.980;11.652;2023-05-08T05:57:54;16.90;65.90
50758;DHT22;36732;47.980;11.652;2023-05-08T06:00:20;16.90;65.30
50758;DHT22;36732;47.980;11.652;2023-05-08T06:02:46;16.90;65.60
50758;DHT22;36732;47.980;11.652;2023-05-08T06:05:12;16.90;65.30
50758;DHT22;36732;47.980;11.652;2023-05-08T06:07:38;16.90;65.20
50758;DHT22;36732;47.980;11.652;2023-05-08T06:10:04;16.90;65.10
50758;DHT22;36732;47.980;11.652;2023-05-08T06:12:30;16.90;65.00
50758;DHT22;36732;47.980;11.652;2023-05-08T06:14:56;16.90;65.00
50758;DHT22;36732;47.980;11.652;2023-05-08T06:17:22;16.90;65.00
50758;DHT22;36732;47.980;11.652;2023-05-08T06:19:48;16.80;65.00
50758;DHT22;36732;47.980;11.652;2023-05-08T06:22:18;16.90;65.10
50758;DHT22;36732;47.980;11.652;2023-05-08T06:24:46;16.80;65.10
50758;DHT22;36732;47.980;11.652;2023-05-08T06:27:11;16.80;65.10
50758;DHT22;36732;47.980;11.652;2023-05-08T06:29:37;16.80;65.10
50758;DHT22;36732;47.980;11.652;2023-05-08T06:32:03;16.80;65.00
50758;DHT22;36732;47.980;11.652;2023-05-08T06:34:29;16.80;65.00
50758;DHT22;36732;47.980;11.652;2023-05-08T06:36:55;16.80;65.00
50758;DHT22;36732;47.980;11.652;2023-05-08T06:39:21;16.80;65.10
50758;DHT22;36732;47.980;11.652;2023-05-08T06:41:47;16.80;65.10
50758;DHT22;36732;47.980;11.652;2023-05-08T06:44:13;16.80;65.00
50758;DHT22;36732;47.980;11.652;2023-05-08T06:46:39;16.80;64.90
50758;DHT22;36732;47.980;11.652;2023-05-08T06:49:05;16.80;65.00
50758;DHT22;36732;47.980;11.652;2023-05-08T06:51:31;16.80;65.00
50758;DHT22;36732;47.980;11.652;2023-05-08T06:53:59;16.80;65.00
50758;DHT22;36732;47.980;11.652;2023-05-08T06:56:26;16.80;65.10
50758;DHT22;36732;47.980;11.652;2023-05-08T06:58:52;16.80;65.20
50758;DHT22;36732;47.980;11.652;2023-05-08T07:01:17;16.80;65.30
50758;DHT22;36732;47.980;11.652;2023-05-08T07:03:43;16.80;65.20
50758;DHT22;36732;47.980;11.652;2023-05-08T07:06:09;16.80;65.10
50758;DHT22;36732;47.980;11.652;2023-05-08T07:08:35;16.80;65.10
50758;DHT22;36732;47.980;11.652;2023-05-08T07:11:01;16.80;65.10
50758;DHT22;36732;47.980;11.652;2023-05-08T07:13:28;16.80;65.00
50758;DHT22;36732;47.980;11.652;2023-05-08T07:15:54;16.80;64.90
50758;DHT22;36732;47.980;11.652;2023-05-08T07:18:20;16.80;64.90
50758;DHT22;36732;47.980;11.652;2023-05-08T07:20:46;16.80;64.90
50758;DHT22;36732;47.980;11.652;2023-05-08T07:23:12;16.80;64.90
50758;DHT22;36732;47.980;11.652;2023-05-08T07:25:38;16.80;65.00
50758;DHT22;36732;47.980;11.652;2023-05-08T07:28:03;16.80;64.70
50758;DHT22;36732;47.980;11.652;2023-05-08T07:30:29;16.80;65.30
50758;DHT22;36732;47.980;11.652;2023-05-08T07:32:55;16.70;64.50
50758;DHT22;36732;47.980;11.652;2023-05-08T07:35:21;16.70;64.50
50758;DHT22;36732;47.980;11.652;2023-05-08T07:37:47;16.70;64.30
50758;DHT22;36732;47.980;11.652;2023-05-08T07:40:13;16.70;64.40
50758;DHT22;36732;47.980;11.652;2023-05-08T07:42:42;16.70;64.40
50758;DHT22;36732;47.980;11.652;2023-05-08T07:45:09;16.70;64.40
50758;DHT22;36732;47.980;11.652;2023-05-08T07:47:36;16.70;64.40
50758;DHT22;36732;47.980;11.652;2023-05-08T07:50:24;16.70;64.40
50758;DHT22;36732;47.980;11.652;2023-05-08T07:52:50;16.70;64.40
50758;DHT22;36732;47.980;11.652;2023-05-08T07:55:17;16.70;64.40
50758;DHT22;36732;47.980;11.652;2023-05-08T07:57:44;16.70;64.40
50758;DHT22;36732;47.980;11.652;2023-05-08T08:00:11;16.70;64.50
50758;DHT22;36732;47.980;11.652;2023-05-08T08:02:38;16.70;64.20
50758;DHT22;36732;47.980;11.652;2023-05-08T08:05:05;16.70;64.30
50758;DHT22;36732;47.980;11.652;2023-05-08T08:07:31;16.70;64.30
50758;DHT22;36732;47.980;11.652;2023-05-08T08:09:57;16.60;64.30
50758;DHT22;36732;47.980;11.652;2023-05-08T08:12:24;16.60;64.30
50758;DHT22;36732;47.980;11.652;2023-05-08T08:14:49;16.60;64.60
50758;DHT22;36732;47.980;11.652;2023-05-08T08:17:15;16.70;64.60
50758;DHT22;36732;47.980;11.652;2023-05-08T08:19:41;16.60;64.60
50758;DHT22;36732;47.980;11.652;2023-05-08T08:22:07;16.60;64.50
50758;DHT22;36732;47.980;11.652;2023-05-08T08:24:33;16.60;64.40
50758;DHT22;36732;47.980;11.652;2023-05-08T08:26:59;16.70;64.50
50758;DHT22;36732;47.980;11.652;2023-05-08T08:29:24;16.60;64.50
50758;DHT22;36732;47.980;11.652;2023-05-08T08:31:50;16.70;64.60
50758;DHT22;36732;47.980;11.652;2023-05-08T08:34:16;16.60;64.50
50758;DHT22;36732;47.980;11.652;2023-05-08T08:36:42;16.60;64.50
50758;DHT22;36732;47.980;11.652;2023-05-08T08:39:08;16.60;64.50
50758;DHT22;36732;47.980;11.652;2023-05-08T08:41:33;16.60;64.70
50758;DHT22;36732;47.980;11.652;2023-05-08T08:43:59;16.70;64.70
50758;DHT22;36732;47.980;11.652;2023-05-08T08:46:26;16.70;64.60
50758;DHT22;36732;47.980;11.652;2023-05-08T08:48:54;16.70;64.80
50758;DHT22;36732;47.980;11.652;2023-05-08T08:51:26;16.70;64.90
50758;DHT22;36732;47.980;11.652;2023-05-08T08:54:10;16.70;65.10
50758;DHT22;36732;47.980;11.652;2023-05-08T08:56:41;16.70;65.20
50758;DHT22;36732;47.980;11.652;2023-05-08T08:59:11;16.70;65.10
50758;DHT22;36732;47.980;11.652;2023-05-08T09:01:39;16.70;65.00
50758;DHT22;36732;47.980;11.652;2023-05-08T09:04:05;16.70;64.90
50758;DHT22;36732;47.980;11.652;2023-05-08T09:06:40;16.70;64.90
50758;DHT22;36732;47.980;11.652;2023-05-08T09:09:06;16.70;65.10
50758;DHT22;36732;47.980;11.652;2023-05-08T09:11:32;16.70;65.00
50758;DHT22;36732;47.980;11.652;2023-05-08T09:13:58;16.70;65.00
50758;DHT22;36732;47.980;11.652;2023-05-08T09:16:24;16.70;65.00
50758;DHT22;36732;47.980;11.652;2023-05-08T09:18:52;16.70;65.00
50758;DHT22;36732;47.980;11.652;2023-05-08T09:21:19;16.70;65.10
50758;DHT22;36732;47.980;11.652;2023-05-08T09:24:03;16.70;65.30
50758;DHT22;36732;47.980;11.652;2023-05-08T09:26:32;16.70;65.40
50758;DHT22;36732;47.980;11.652;2023-05-08T09:29:18;16.70;65.20
50758;DHT22;36732;47.980;11.652;2023-05-08T09:31:50;16.70;65.50
50758;DHT22;36732;47.980;11.652;2023-05-08T09:34:27;16.70;65.30
50758;DHT22;36732;47.980;11.652;2023-05-08T09:37:10;16.70;65.40
50758;DHT22;36732;47.980;11.652;2023-05-08T09:39:37;16.70;65.50
50758;DHT22;36732;47.980;11.652;2023-05-08T09:42:07;16.70;65.50
50758;DHT22;36732;47.980;11.652;2023-05-08T09:44:47;16.70;65.50
50758;DHT22;36732;47.980;11.652;2023-05-08T09:47:24;16.70;65.90
50758;DHT22;36732;47.980;11.652;2023-05-08T09:52:26;16.80;65.90
50758;DHT22;36732;47.980;11.652;2023-05-08T09:55:04;16.80;65.90
50758;DHT22;36732;47.980;11.652;2023-05-08T09:57:31;16.80;66.10
50758;DHT22;36732;47.980;11.652;2023-05-08T10:00:03;16.80;65.90
50758;DHT22;36732;47.980;11.652;2023-05-08T10:02:31;16.80;65.90
50758;DHT22;36732;47.980;11.652;2023-05-08T10:04:57;16.90;66.00
50758;DHT22;36732;47.980;11.652;2023-05-08T10:07:29;16.90;66.00
50758;DHT22;36732;47.980;11.652;2023-05-08T10:10:05;16.90;66.00
50758;DHT22;36732;47.980;11.652;2023-05-08T10:12:32;16.90;66.00
50758;DHT22;36732;47.980;11.652;2023-05-08T10:14:58;16.90;66.10
50758;DHT22;36732;47.980;11.652;2023-05-08T10:17:26;16.90;65.90
50758;DHT22;36732;47.980;11.652;2023-05-08T10:19:58;17.00;65.90
50758;DHT22;36732;47.980;11.652;2023-05-08T10:22:28;17.00;66.00
50758;DHT22;36732;47.980;11.652;2023-05-08T10:24:56;17.00;65.90
50758;DHT22;36732;47.980;11.652;2023-05-08T10:27:32;17.00;66.00
50758;DHT22;36732;47.980;11.652;2023-05-08T10:30:02;17.10;66.00
50758;DHT22;36732;47.980;11.652;2023-05-08T10:32:34;17.00;66.00
50758;DHT22;36732;47.980;11.652;2023-05-08T10:35:08;17.10;66.00
50758;DHT22;36732;47.980;11.652;2023-05-08T10:37:36;17.10;66.00
50758;DHT22;36732;47.980;11.652;2023-05-08T10:40:03;17.10;65.90
50758;DHT22;36732;47.980;11.652;2023-05-08T10:42:31;17.10;65.90
50758;DHT22;36732;47.980;11.652;2023-05-08T10:44:58;17.20;65.90
50758;DHT22;36732;47.980;11.652;2023-05-08T10:53:10;17.20;65.80
50758;DHT22;36732;47.980;11.652;2023-05-08T10:55:43;17.20;65.80
50758;DHT22;36732;47.980;11.652;2023-05-08T11:03:23;17.30;65.60
50758;DHT22;36732;47.980;11.652;2023-05-08T11:05:51;17.30;65.60
50758;DHT22;36732;47.980;11.652;2023-05-08T11:08:19;17.30;65.50
50758;DHT22;36732;47.980;11.652;2023-05-08T11:13:49;17.30;65.60
50758;DHT22;36732;47.980;11.652;2023-05-08T11:16:16;17.30;65.80
50758;DHT22;36732;47.980;11.652;2023-05-08T11:19:17;17.40;65.90
50758;DHT22;36732;47.980;11.652;2023-05-08T11:22:24;17.40;65.90
50758;DHT22;36732;47.980;11.652;2023-05-08T11:25:11;17.40;65.90
50758;DHT22;36732;47.980;11.652;2023-05-08T11:30:37;17.40;65.90
50758;DHT22;36732;47.980;11.652;2023-05-08T11:38:19;17.40;65.40
50758;DHT22;36732;47.980;11.652;2023-05-08T11:41:00;17.40;65.30
50758;DHT22;36732;47.980;11.652;2023-05-08T11:46:03;17.50;65.10
50758;DHT22;36732;47.980;11.652;2023-05-08T11:48:35;17.50;65.10
50758;DHT22;36732;47.980;11.652;2023-05-08T11:51:02;17.50;65.10
50758;DHT22;36732;47.980;11.652;2023-05-08T11:53:28;17.50;65.00
50758;DHT22;36732;47.980;11.652;2023-05-08T11:55:55;17.50;64.90
50758;DHT22;36732;47.980;11.652;2023-05-08T11:58:21;17.50;64.70
50758;DHT22;36732;47.980;11.652;2023-05-08T12:00:48;17.50;64.80
50758;DHT22;36732;47.980;11.652;2023-05-08T12:03:15;17.50;64.70
50758;DHT22;36732;47.980;11.652;2023-05-08T12:05:43;17.50;64.80
50758;DHT22;36732;47.980;11.652;2023-05-08T12:08:10;17.50;64.70
50758;DHT22;36732;47.980;11.652;2023-05-08T12:13:19;17.50;64.70
50758;DHT22;36732;47.980;11.652;2023-05-08T12:15:47;17.50;64.60
50758;DHT22;36732;47.980;11.652;2023-05-08T12:18:15;17.60;64.60
50758;DHT22;36732;47.980;11.652;2023-05-08T12:20:42;17.60;64.50
50758;DHT22;36732;47.980;11.652;2023-05-08T12:23:08;17.60;64.50
50758;DHT22;36732;47.980;11.652;2023-05-08T12:25:38;17.60;64.30
50758;DHT22;36732;47.980;11.652;2023-05-08T12:28:08;17.60;64.10
50758;DHT22;36732;47.980;11.652;2023-05-08T12:30:35;17.60;64.00
50758;DHT22;36732;47.980;11.652;2023-05-08T12:33:01;17.60;64.10
50758;DHT22;36732;47.980;11.652;2023-05-08T12:35:29;17.60;64.10
50758;DHT22;36732;47.980;11.652;2023-05-08T12:38:00;17.60;64.30
50758;DHT22;36732;47.980;11.652;2023-05-08T12:40:29;17.60;64.30
50758;DHT22;36732;47.980;11.652;2023-05-08T12:42:58;17.60;64.40
50758;DHT22;36732;47.980;11.652;2023-05-08T12:45:45;17.60;64.50
50758;DHT22;36732;47.980;11.652;2023-05-08T12:48:13;17.60;64.30
50758;DHT22;36732;47.980;11.652;2023-05-08T12:50:44;17.70;64.40
50758;DHT22;36732;47.980;11.652;2023-05-08T12:53:17;17.70;64.10
50758;DHT22;36732;47.980;11.652;2023-05-08T12:55:55;17.70;64.20
50758;DHT22;36732;47.980;11.652;2023-05-08T12:58:32;17.70;63.90
50758;DHT22;36732;47.980;11.652;2023-05-08T13:01:08;17.70;64.00
50758;DHT22;36732;47.980;11.652;2023-05-08T13:03:38;17.70;64.00
50758;DHT22;36732;47.980;11.652;2023-05-08T13:06:05;17.70;64.10
50758;DHT22;36732;47.980;11.652;2023-05-08T13:08:36;17.70;64.20
50758;DHT22;36732;47.980;11.652;2023-05-08T13:11:04;17.70;64.60
50758;DHT22;36732;47.980;11.652;2023-05-08T13:13:32;17.70;64.00
50758;DHT22;36732;47.980;11.652;2023-05-08T13:16:02;17.80;63.80
50758;DHT22;36732;47.980;11.652;2023-05-08T13:18:28;17.70;63.90
50758;DHT22;36732;47.980;11.652;2023-05-08T13:20:54;17.80;64.00
50758;DHT22;36732;47.980;11.652;2023-05-08T13:23:21;17.80;64.00
50758;DHT22;36732;47.980;11.652;2023-05-08T13:25:47;17.80;64.00
50758;DHT22;36732;47.980;11.652;2023-05-08T13:28:12;17.80;63.90
50758;DHT22;36732;47.980;11.652;2023-05-08T13:30:38;17.80;63.80
50758;DHT22;36732;47.980;11.652;2023-05-08T13:33:04;17.80;64.00
50758;DHT22;36732;47.980;11.652;2023-05-08T13:35:30;17.80;64.00
50758;DHT22;36732;47.980;11.652;2023-05-08T13:37:57;17.80;64.00
50758;DHT22;36732;47.980;11.652;2023-05-08T13:40:24;17.80;63.70
50758;DHT22;36732;47.980;11.652;2023-05-08T13:42:50;17.80;63.60
50758;DHT22;36732;47.980;11.652;2023-05-08T13:45:16;17.80;63.40
50758;DHT22;36732;47.980;11.652;2023-05-08T13:47:46;17.80;63.10
50758;DHT22;36732;47.980;11.652;2023-05-08T13:50:14;17.80;63.10
50758;DHT22;36732;47.980;11.652;2023-05-08T13:52:41;17.80;63.10
50758;DHT22;36732;47.980;11.652;2023-05-08T13:55:09;17.80;63.20
50758;DHT22;36732;47.980;11.652;2023-05-08T13:57:37;17.80;63.20
50758;DHT22;36732;47.980;11.652;2023-05-08T14:00:04;17.80;62.80
50758;DHT22;36732;47.980;11.652;2023-05-08T14:02:30;17.80;62.90
50758;DHT22;36732;47.980;11.652;2023-05-08T14:04:56;17.80;62.90
50758;DHT22;36732;47.980;11.652;2023-05-08T14:07:22;17.80;62.90
50758;DHT22;36732;47.980;11.652;2023-05-08T14:09:48;17.90;63.10
50758;DHT22;36732;47.980;11.652;2023-05-08T14:12:14;17.80;63.10
50758;DHT22;36732;47.980;11.652;2023-05-08T14:14:40;17.80;62.80
50758;DHT22;36732;47.980;11.652;2023-05-08T14:17:05;17.80;62.70
50758;DHT22;36732;47.980;11.652;2023-05-08T14:19:32;17.80;62.70
50758;DHT22;36732;47.980;11.652;2023-05-08T14:21:58;17.80;62.70
50758;DHT22;36732;47.980;11.652;2023-05-08T14:24:24;17.80;62.80
50758;DHT22;36732;47.980;11.652;2023-05-08T14:26:50;17.80;62.70
50758;DHT22;36732;47.980;11.652;2023-05-08T14:29:16;17.80;62.80
50758;DHT22;36732;47.980;11.652;2023-05-08T14:31:43;17.80;62.70
50758;DHT22;36732;47.980;11.652;2023-05-08T14:34:09;17.80;63.50
50758;DHT22;36732;47.980;11.652;2023-05-08T14:36:35;17.80;62.90
50758;DHT22;36732;47.980;11.652;2023-05-08T14:39:01;17.80;62.90
50758;DHT22;36732;47.980;11.652;2023-05-08T14:41:30;17.90;63.00
50758;DHT22;36732;47.980;11.652;2023-05-08T14:43:56;17.90;62.90
50758;DHT22;36732;47.980;11.652;2023-05-08T14:46:23;17.90;63.00
50758;DHT22;36732;47.980;11.652;2023-05-08T14:48:49;17.90;62.90
50758;DHT22;36732;47.980;11.652;2023-05-08T14:51:15;17.90;62.90
50758;DHT22;36732;47.980;11.652;2023-05-08T14:53:43;17.90;62.90
50758;DHT22;36732;47.980;11.652;2023-05-08T14:56:10;17.90;62.80
50758;DHT22;36732;47.980;11.652;2023-05-08T14:58:38;17.90;62.70
50758;DHT22;36732;47.980;11.652;2023-05-08T15:01:03;17.90;62.60
50758;DHT22;36732;47.980;11.652;2023-05-08T15:03:29;17.90;62.80
50758;DHT22;36732;47.980;11.652;2023-05-08T15:05:55;17.90;62.40
50758;DHT22;36732;47.980;11.652;2023-05-08T15:08:21;17.90;62.40
50758;DHT22;36732;47.980;11.652;2023-05-08T15:10:46;17.90;62.50
50758;DHT22;36732;47.980;11.652;2023-05-08T15:13:12;17.90;62.30
50758;DHT22;36732;47.980;11.652;2023-05-08T15:15:38;17.90;62.30
50758;DHT22;36732;47.980;11.652;2023-05-08T15:18:04;17.90;62.40
50758;DHT22;36732;47.980;11.652;2023-05-08T15:20:29;17.90;62.40
50758;DHT22;36732;47.980;11.652;2023-05-08T15:22:55;17.90;62.10
50758;DHT22;36732;47.980;11.652;2023-05-08T15:25:21;17.90;62.10
50758;DHT22;36732;47.980;11.652;2023-05-08T15:27:46;17.90;62.00
50758;DHT22;36732;47.980;11.652;2023-05-08T15:30:17;17.90;62.10
50758;DHT22;36732;47.980;11.652;2023-05-08T15:32:44;17.90;62.00
50758;DHT22;36732;47.980;11.652;2023-05-08T15:35:10;17.80;61.80
50758;DHT22;36732;47.980;11.652;2023-05-08T15:37:35;17.90;61.80
50758;DHT22;36732;47.980;11.652;2023-05-08T15:40:02;17.80;61.20
50758;DHT22;36732;47.980;11.652;2023-05-08T15:42:28;17.80;61.10
50758;DHT22;36732;47.980;11.652;2023-05-08T15:44:57;17.80;60.90
50758;DHT22;36732;47.980;11.652;2023-05-08T15:47:23;17.80;60.00
50758;DHT22;36732;47.980;11.652;2023-05-08T15:49:52;17.80;60.50
50758;DHT22;36732;47.980;11.652;2023-05-08T15:52:18;17.80;60.40
50758;DHT22;36732;47.980;11.652;2023-05-08T15:54:45;17.80;60.40
50758;DHT22;36732;47.980;11.652;2023-05-08T15:57:11;17.80;60.50
50758;DHT22;36732;47.980;11.652;2023-05-08T15:59:37;17.80;60.50
50758;DHT22;36732;47.980;11.652;2023-05-08T16:02:03;17.80;60.30
50758;DHT22;36732;47.980;11.652;2023-05-08T16:04:29;17.80;60.30
50758;DHT22;36732;47.980;11.652;2023-05-08T16:06:54;17.70;60.50
50758;DHT22;36732;47.980;11.652;2023-05-08T16:09:21;17.70;61.30
50758;DHT22;36732;47.980;11.652;2023-05-08T16:11:47;17.70;60.70
50758;DHT22;36732;47.980;11.652;2023-05-08T16:14:13;17.70;60.80
50758;DHT22;36732;47.980;11.652;2023-05-08T16:16:39;17.70;60.80
50758;DHT22;36732;47.980;11.652;2023-05-08T16:19:05;17.70;60.70
50758;DHT22;36732;47.980;11.652;2023-05-08T16:21:31;17.70;60.50
50758;DHT22;36732;47.980;11.652;2023-05-08T16:23:56;17.70;60.40